Providence, Rhode Island
Traffic Map
Current Weather Conditions
Providence, Rhode Island
Overcast Haze
Overcast
34°
Feels Like: 34°
Wind Chill: 34° Ceiling: 600
Heat Index: 34° Visibility: 2mi
Dew Point: 34° Wind: 0mph
Humidity: 100% Direction: ° ()
Pressure: 29.97in Gusts: 0mph
Raw Report DataKPVD 182151Z 00000KT 2SM BR OVC006 01/01 A2997 RMK AO2 SFC VIS 4 SLP147 T00110011
Traffic Incident Summary
Active as of:
Severity:
Category:
InformationThere was an issue retrieving the traffic information for this location. Please try a different location or try again shortly.
Advertisements